Time;durP1;ratioP1;P1;durP2;ratioP2;P2;SDS_P1;SDS_P2;PMS_P1;PMS_P2;Temp;Humidity;BMP_temperature;BMP_pressure;BME280_temperature;BME280_humidity;BME280_pressure;Samples;Min_cycle;Max_cycle;Signal;HPM_P1;HPM_P2
2024/03/13 05:30:18;;;;;;;0.10;0.10;;;12.40;85.00;;;;;;5828332;24;20106;-76
2024/03/13 05:32:44;;;;;;;0.10;0.10;;;12.30;85.00;;;;;;4859762;29;20065;-76
2024/03/13 05:35:12;;;;;;;0.10;0.10;;;12.30;85.10;;;;;;4864337;29;20029;-76
2024/03/13 05:37:39;;;;;;;0.10;0.10;;;12.30;85.20;;;;;;4861557;29;20082;-76
2024/03/13 05:40:17;;;;;;;0.10;0.10;;;12.30;85.40;;;;;;4864299;29;20029;-76
2024/03/13 05:42:43;;;;;;;0.10;0.10;;;12.30;85.50;;;;;;4845566;29;20021;-76
2024/03/13 05:45:15;;;;;;;0.10;0.10;;;12.20;85.50;;;;;;4845613;29;20041;-76
2024/03/13 05:47:41;;;;;;;0.10;0.10;;;12.20;85.80;;;;;;4858013;29;20048;-76
2024/03/13 05:50:07;;;;;;;0.10;0.10;;;12.20;85.90;;;;;;4859645;29;20034;-77
2024/03/13 05:52:33;;;;;;;0.00;0.00;;;12.20;86.10;;;;;;4845518;29;20022;-76
2024/03/13 05:55:00;;;;;;;0.10;0.10;;;12.20;85.90;;;;;;4844341;29;20037;-77
2024/03/13 05:57:27;;;;;;;0.10;0.10;;;12.20;86.00;;;;;;4844241;29;20037;-76
2024/03/13 05:59:53;;;;;;;0.00;0.00;;;12.10;86.00;;;;;;4831648;29;20029;-76
2024/03/13 06:02:18;;;;;;;0.10;0.10;;;12.10;86.10;;;;;;4859981;29;20017;-76
2024/03/13 06:04:47;;;;;;;0.10;0.10;;;12.00;86.30;;;;;;4849122;29;20058;-78
2024/03/13 06:07:13;;;;;;;0.10;0.10;;;11.90;86.40;;;;;;4853427;29;20041;-76
2024/03/13 06:09:39;;;;;;;0.10;0.10;;;11.90;86.50;;;;;;4846883;29;20037;-75
2024/03/13 06:12:06;;;;;;;0.10;0.10;;;11.80;86.70;;;;;;4846875;29;20101;-75
2024/03/13 06:14:33;;;;;;;0.10;0.10;;;11.70;86.60;;;;;;4847923;29;20037;-74
2024/03/13 06:16:59;;;;;;;0.10;0.10;;;11.80;86.80;;;;;;4847306;29;20124;-75
2024/03/13 06:19:25;;;;;;;0.10;0.10;;;11.70;86.90;;;;;;4862389;29;20064;-75
2024/03/13 06:21:52;;;;;;;0.10;0.10;;;11.70;86.90;;;;;;4845365;29;20034;-75
2024/03/13 06:24:23;;;;;;;0.05;0.05;;;11.70;86.90;;;;;;4844218;29;20668;-75
2024/03/13 06:26:49;;;;;;;0.08;0.08;;;11.60;87.00;;;;;;4860400;29;20413;-76
2024/03/13 06:32:00;;;;;;;0.10;0.10;;;11.60;87.20;;;;;;4858133;29;20060;-75
2024/03/13 06:34:26;;;;;;;0.10;0.10;;;11.60;87.00;;;;;;4862975;29;20120;-76
2024/03/13 06:36:52;;;;;;;0.10;0.10;;;11.60;87.00;;;;;;4863417;29;20072;-75
2024/03/13 06:39:21;;;;;;;0.10;0.10;;;11.50;87.10;;;;;;4857758;29;20574;-76
2024/03/13 06:41:47;;;;;;;0.10;0.10;;;11.50;86.90;;;;;;4846892;29;20037;-76
2024/03/13 06:44:13;;;;;;;0.10;0.10;;;11.50;86.90;;;;;;4842500;29;20111;-77
2024/03/13 06:46:39;;;;;;;0.10;0.10;;;11.50;87.20;;;;;;4862259;29;20033;-75
2024/03/13 06:49:04;;;;;;;0.10;0.10;;;11.60;87.10;;;;;;4850281;29;20029;-75
2024/03/13 06:51:30;;;;;;;0.10;0.10;;;11.60;87.10;;;;;;4844452;29;20074;-75
2024/03/13 06:53:55;;;;;;;0.10;0.10;;;11.80;87.00;;;;;;4828298;29;20553;-75
2024/03/13 06:56:22;;;;;;;0.10;0.10;;;11.90;86.90;;;;;;4844502;29;20038;-75
2024/03/13 06:58:47;;;;;;;0.10;0.10;;;11.90;86.60;;;;;;4842956;29;20028;-75
2024/03/13 07:01:14;;;;;;;0.10;0.10;;;11.90;86.30;;;;;;4843628;29;20114;-75
2024/03/13 07:03:41;;;;;;;0.10;0.10;;;12.00;86.50;;;;;;4844621;29;20022;-75
2024/03/13 07:06:06;;;;;;;0.10;0.10;;;12.20;86.00;;;;;;4844680;29;20037;-75
2024/03/13 07:08:35;;;;;;;0.10;0.10;;;12.20;85.80;;;;;;4844515;29;20034;-75
2024/03/13 07:11:04;;;;;;;0.10;0.10;;;12.20;85.80;;;;;;4840187;29;20042;-74
2024/03/13 07:13:31;;;;;;;0.13;0.13;;;12.30;85.40;;;;;;4844311;29;20026;-75
2024/03/13 07:15:56;;;;;;;0.20;0.20;;;12.80;84.90;;;;;;4844466;29;20111;-75
2024/03/13 07:18:22;;;;;;;0.10;0.10;;;13.00;83.90;;;;;;4844538;29;20065;-75
2024/03/13 07:20:47;;;;;;;0.20;0.20;;;13.40;82.90;;;;;;4844817;29;20071;-75
2024/03/13 07:23:13;;;;;;;0.20;0.20;;;13.50;82.80;;;;;;4844393;29;20114;-76
2024/03/13 07:25:39;;;;;;;0.10;0.10;;;14.70;80.50;;;;;;4844538;29;20030;-75
2024/03/13 07:28:08;;;;;;;0.10;0.10;;;15.10;78.50;;;;;;4842381;29;20113;-75
2024/03/13 07:30:34;;;;;;;0.10;0.10;;;14.80;78.40;;;;;;4854207;29;20049;-75
2024/03/13 07:33:00;;;;;;;0.10;0.10;;;14.50;78.80;;;;;;4846488;29;20022;-75
2024/03/13 07:35:26;;;;;;;0.10;0.10;;;14.20;78.90;;;;;;4843124;29;20578;-76
2024/03/13 07:37:51;;;;;;;0.10;0.10;;;14.00;79.10;;;;;;4848256;29;20038;-76
2024/03/13 07:40:20;;;;;;;0.20;0.20;;;13.80;79.90;;;;;;4863253;29;20041;-75
2024/03/13 07:42:46;;;;;;;0.10;0.10;;;14.70;78.40;;;;;;4849674;29;20085;-75
2024/03/13 07:45:16;;;;;;;0.10;0.10;;;15.70;75.30;;;;;;4866590;29;20045;-76
2024/03/13 07:47:42;;;;;;;0.20;0.20;;;15.20;75.50;;;;;;4865998;29;20044;-75
2024/03/13 07:50:10;;;;;;;0.20;0.20;;;15.00;75.90;;;;;;4846508;29;20026;-76
2024/03/13 07:52:37;;;;;;;0.20;0.20;;;15.30;75.50;;;;;;4862325;29;20051;-75
2024/03/13 07:55:06;;;;;;;0.10;0.10;;;16.10;73.50;;;;;;4866383;29;20068;-76
2024/03/13 07:57:31;;;;;;;0.10;0.10;;;15.50;73.70;;;;;;4848214;29;20417;-75
2024/03/13 07:59:57;;;;;;;0.10;0.10;;;14.80;75.30;;;;;;4847773;29;20034;-76
2024/03/13 08:02:23;;;;;;;0.10;0.10;;;14.30;76.60;;;;;;4856854;29;20033;-76
2024/03/13 08:04:49;;;;;;;0.10;0.10;;;13.90;78.10;;;;;;4866103;29;20029;-76
2024/03/13 08:07:14;;;;;;;0.10;0.10;;;14.30;78.10;;;;;;4854263;29;20074;-75
2024/03/13 08:09:40;;;;;;;0.20;0.20;;;15.10;76.00;;;;;;4847382;29;20038;-76
2024/03/13 08:12:06;;;;;;;0.10;0.10;;;15.50;74.40;;;;;;4847690;29;20034;-76
2024/03/13 08:14:34;;;;;;;0.20;0.20;;;15.70;73.80;;;;;;4846347;29;20121;-76
2024/03/13 08:17:00;;;;;;;0.10;0.10;;;16.30;72.30;;;;;;4847194;29;20044;-76
2024/03/13 08:19:26;;;;;;;0.20;0.20;;;16.30;71.50;;;;;;4847036;29;20042;-75
2024/03/13 08:21:52;;;;;;;0.10;0.10;;;16.00;71.00;;;;;;4847523;29;20390;-76
2024/03/13 08:24:18;;;;;;;0.17;0.17;;;15.80;71.20;;;;;;4851975;29;20025;-75
2024/03/13 08:26:44;;;;;;;0.30;0.30;;;15.20;72.20;;;;;;4865346;29;20027;-76
2024/03/13 08:29:15;;;;;;;0.20;0.20;;;15.70;72.20;;;;;;4845889;29;20128;-75
2024/03/13 08:31:42;;;;;;;0.20;0.20;;;16.30;71.10;;;;;;4851431;29;20414;-75
2024/03/13 08:34:09;;;;;;;0.10;0.10;;;16.40;70.50;;;;;;4845167;29;20475;-75
2024/03/13 08:36:34;;;;;;;0.20;0.20;;;16.00;70.40;;;;;;4847244;29;20030;-76
2024/03/13 08:39:00;;;;;;;0.10;0.10;;;15.70;70.80;;;;;;4853302;29;20401;-75
2024/03/13 08:41:26;;;;;;;0.22;0.22;;;15.10;72.10;;;;;;4864374;29;20026;-76
2024/03/13 08:43:51;;;;;;;0.20;0.20;;;14.90;72.80;;;;;;4865275;29;20089;-75
2024/03/13 08:46:18;;;;;;;0.10;0.10;;;15.00;73.40;;;;;;4865199;29;20096;-76
2024/03/13 08:48:43;;;;;;;0.10;0.10;;;15.10;73.40;;;;;;4849216;29;20030;-75
2024/03/13 08:51:12;;;;;;;2.95;2.85;;;14.80;73.60;;;;;;4846850;29;20372;-75
2024/03/13 08:53:37;;;;;;;0.10;0.10;;;15.30;73.60;;;;;;4846998;29;20540;-76
2024/03/13 08:56:03;;;;;;;0.45;0.45;;;16.00;71.00;;;;;;4846725;29;20042;-76
2024/03/13 08:58:29;;;;;;;0.10;0.10;;;16.60;68.70;;;;;;4830030;29;20049;-76
2024/03/13 09:00:55;;;;;;;0.30;0.30;;;16.60;68.30;;;;;;4845564;29;20537;-76
2024/03/13 09:03:26;;;;;;;0.50;0.50;;;17.30;67.50;;;;;;4863625;29;20041;-76
2024/03/13 09:05:51;;;;;;;0.30;0.30;;;17.30;65.50;;;;;;4848498;29;20065;-76
2024/03/13 09:08:22;;;;;;;0.35;0.35;;;17.40;65.30;;;;;;4848752;29;20034;-75
2024/03/13 09:10:47;;;;;;;0.65;0.65;;;17.30;64.80;;;;;;4848966;29;20037;-75
2024/03/13 09:13:13;;;;;;;0.20;0.20;;;17.40;64.70;;;;;;4845199;29;20030;-76
2024/03/13 09:15:39;;;;;;;0.10;0.10;;;17.50;64.10;;;;;;4846224;29;20041;-76
2024/03/13 09:18:05;;;;;;;0.10;0.10;;;17.00;65.70;;;;;;4846314;29;20114;-75
2024/03/13 09:20:30;;;;;;;0.40;0.40;;;16.90;65.90;;;;;;4846467;29;20038;-76
2024/03/13 09:22:56;;;;;;;0.60;0.60;;;16.70;66.40;;;;;;4846214;29;20030;-76
2024/03/13 09:25:21;;;;;;;0.30;0.30;;;16.50;67.20;;;;;;4846020;29;20082;-76
2024/03/13 09:27:47;;;;;;;1.52;1.52;;;16.70;66.80;;;;;;4846194;29;20069;-75
2024/03/13 09:30:13;;;;;;;1.77;1.67;;;16.60;66.90;;;;;;4846332;29;20053;-76
2024/03/13 09:32:38;;;;;;;1.13;1.13;;;17.10;66.00;;;;;;4855987;29;20037;-75
2024/03/13 09:35:04;;;;;;;1.17;1.17;;;18.00;64.60;;;;;;4848142;29;20056;-76
2024/03/13 09:37:33;;;;;;;6.78;6.47;;;18.70;62.10;;;;;;4864579;29;20069;-75
2024/03/13 09:39:58;;;;;;;7.93;7.63;;;19.00;60.90;;;;;;4860618;29;20036;-75
2024/03/13 09:42:27;;;;;;;0.80;0.80;;;18.40;60.30;;;;;;4848002;29;20030;-75
2024/03/13 09:44:55;;;;;;;0.30;0.30;;;18.90;60.90;;;;;;4861555;29;20017;-75
2024/03/13 09:47:26;;;;;;;1.80;1.70;;;19.40;59.30;;;;;;4846095;29;20088;-75
2024/03/13 09:49:53;;;;;;;1.60;1.50;;;20.10;56.20;;;;;;4845015;29;20040;-76
2024/03/13 09:52:19;;;;;;;1.08;1.08;;;20.30;55.00;;;;;;4842923;29;20466;-76
2024/03/13 09:54:46;;;;;;;0.20;0.20;;;20.80;54.40;;;;;;4845626;29;20037;-76
2024/03/13 09:57:13;;;;;;;1.50;1.40;;;20.80;54.70;;;;;;4845650;29;20090;-76
2024/03/13 09:59:39;;;;;;;1.80;1.70;;;21.10;52.80;;;;;;4844141;29;20065;-76
2024/03/13 10:02:16;;;;;;;1.50;1.40;;;20.80;52.40;;;;;;4853016;29;20034;-76
2024/03/13 10:04:42;;;;;;;1.10;1.10;;;20.80;53.00;;;;;;4846693;29;20033;-76
2024/03/13 10:07:17;;;;;;;0.90;0.90;;;21.00;53.40;;;;;;4845757;29;20034;-75
2024/03/13 10:09:44;;;;;;;0.20;0.20;;;20.50;53.50;;;;;;4845493;29;20029;-75
2024/03/13 10:12:11;;;;;;;0.30;0.30;;;19.70;54.60;;;;;;4845364;29;20045;-76
2024/03/13 10:14:39;;;;;;;0.98;0.98;;;19.00;56.30;;;;;;4845175;29;20570;-75
2024/03/13 10:17:05;;;;;;;1.23;1.20;;;18.70;56.90;;;;;;4829372;29;20037;-76
2024/03/13 10:19:36;;;;;;;0.40;0.40;;;18.90;58.00;;;;;;4861112;29;20042;-76
2024/03/13 10:22:02;;;;;;;0.10;0.10;;;18.70;57.70;;;;;;4860501;29;20041;-76
2024/03/13 10:24:31;;;;;;;0.10;0.10;;;18.10;59.70;;;;;;4845003;29;20478;-76
2024/03/13 10:26:57;;;;;;;0.10;0.10;;;18.20;60.60;;;;;;4856509;29;20046;-76
2024/03/13 10:29:23;;;;;;;0.10;0.10;;;18.30;61.40;;;;;;4859949;29;20103;-76
2024/03/13 10:31:51;;;;;;;0.10;0.10;;;18.30;61.30;;;;;;4850405;29;20086;-76
2024/03/13 10:34:18;;;;;;;0.10;0.10;;;18.10;61.70;;;;;;4863507;29;20040;-76
2024/03/13 10:36:45;;;;;;;0.10;0.10;;;17.90;61.70;;;;;;4850838;29;20030;-75
2024/03/13 10:39:14;;;;;;;0.10;0.10;;;17.90;61.40;;;;;;4847169;29;20034;-76
2024/03/13 10:41:44;;;;;;;0.10;0.10;;;17.70;60.70;;;;;;4856796;29;20038;-76
2024/03/13 10:44:10;;;;;;;0.10;0.10;;;17.50;61.70;;;;;;4844990;29;20042;-75
2024/03/13 10:46:37;;;;;;;0.10;0.10;;;17.30;62.00;;;;;;4845010;29;20038;-76
2024/03/13 10:49:05;;;;;;;0.10;0.10;;;17.20;62.50;;;;;;4843191;29;20570;-75
2024/03/13 10:51:31;;;;;;;0.10;0.10;;;17.50;63.30;;;;;;4828769;29;20034;-76
2024/03/13 10:54:01;;;;;;;0.10;0.10;;;17.50;62.00;;;;;;4835155;29;20038;-76
2024/03/13 10:56:26;;;;;;;0.10;0.10;;;17.30;61.90;;;;;;4844844;29;20050;-76
2024/03/13 10:58:55;;;;;;;0.10;0.10;;;17.00;62.20;;;;;;4844763;29;20538;-76
2024/03/13 11:01:21;;;;;;;0.10;0.10;;;17.20;62.50;;;;;;4846069;29;20098;-76
2024/03/13 11:03:58;;;;;;;0.10;0.10;;;17.30;62.90;;;;;;4863442;29;20599;-76
2024/03/13 11:06:25;;;;;;;0.10;0.10;;;17.30;63.10;;;;;;4848593;29;20030;-76
2024/03/13 11:08:51;;;;;;;0.10;0.10;;;17.50;62.50;;;;;;4828700;29;20030;-76
2024/03/13 11:11:20;;;;;;;0.10;0.10;;;17.70;61.60;;;;;;4846964;29;20037;-76
2024/03/13 11:13:53;;;;;;;0.10;0.10;;;17.70;61.30;;;;;;4848395;29;20497;-76
2024/03/13 11:16:20;;;;;;;0.10;0.10;;;17.50;62.30;;;;;;4852248;29;20116;-76
2024/03/13 11:18:47;;;;;;;0.10;0.10;;;17.60;62.50;;;;;;4865907;29;20113;-76
2024/03/13 11:21:29;;;;;;;0.10;0.10;;;17.80;62.00;;;;;;4848135;29;20118;-76
2024/03/13 11:24:02;;;;;;;0.10;0.10;;;17.50;61.50;;;;;;4848465;29;20045;-76
2024/03/13 11:26:34;;;;;;;0.10;0.10;;;17.70;61.50;;;;;;4848383;29;20121;-76
2024/03/13 11:29:01;;;;;;;0.10;0.10;;;17.80;61.50;;;;;;4848156;29;20159;-76
2024/03/13 11:31:31;;;;;;;0.10;0.10;;;17.90;61.90;;;;;;4850276;29;20422;-76
2024/03/13 11:33:58;;;;;;;0.10;0.10;;;18.00;60.70;;;;;;4866824;29;20025;-76
2024/03/13 11:36:24;;;;;;;0.10;0.10;;;17.90;61.20;;;;;;4845821;29;20065;-76
2024/03/13 11:38:50;;;;;;;0.10;0.10;;;17.90;61.30;;;;;;4852648;29;20032;-76
2024/03/13 11:41:16;;;;;;;0.10;0.10;;;17.80;62.10;;;;;;4862929;29;20112;-76
2024/03/13 11:43:41;;;;;;;0.10;0.10;;;17.70;62.10;;;;;;4866648;29;20100;-76
2024/03/13 11:46:11;;;;;;;0.10;0.10;;;17.80;62.80;;;;;;4862497;29;20109;-76
2024/03/13 11:48:37;;;;;;;0.10;0.10;;;17.90;61.90;;;;;;4848463;29;20014;-76
2024/03/13 11:51:06;;;;;;;0.10;0.10;;;17.70;62.00;;;;;;4847940;29;20045;-76
2024/03/13 11:53:34;;;;;;;0.10;0.10;;;17.60;62.60;;;;;;4848036;29;20018;-76
2024/03/13 11:56:02;;;;;;;0.10;0.10;;;17.50;62.70;;;;;;4847912;29;20073;-76
2024/03/13 11:58:27;;;;;;;0.00;0.00;;;17.30;62.40;;;;;;4846622;29;20033;-76
2024/03/13 12:00:54;;;;;;;0.10;0.10;;;17.20;63.10;;;;;;4850081;29;20052;-76
2024/03/13 12:03:20;;;;;;;0.08;0.08;;;16.90;64.00;;;;;;4866158;29;20032;-76
2024/03/13 12:05:46;;;;;;;0.10;0.10;;;17.00;64.70;;;;;;4850480;29;20062;-76
2024/03/13 12:08:19;;;;;;;0.10;0.10;;;17.00;64.80;;;;;;4847434;29;20018;-76
2024/03/13 12:10:53;;;;;;;0.10;0.10;;;17.00;63.90;;;;;;4847770;29;20063;-76
2024/03/13 12:13:18;;;;;;;0.10;0.10;;;17.10;63.80;;;;;;4847494;29;20106;-76
2024/03/13 12:15:46;;;;;;;0.10;0.10;;;17.00;63.90;;;;;;4847611;29;20038;-76
2024/03/13 12:18:12;;;;;;;0.10;0.10;;;17.00;63.60;;;;;;4848878;29;20034;-76
2024/03/13 12:20:40;;;;;;;0.10;0.10;;;17.10;63.60;;;;;;4865829;29;20478;-76
2024/03/13 12:23:08;;;;;;;0.10;0.10;;;17.20;63.80;;;;;;4863872;29;20025;-76
2024/03/13 12:25:34;;;;;;;0.10;0.10;;;17.40;63.70;;;;;;4865713;29;20041;-76
2024/03/13 12:28:00;;;;;;;0.10;0.10;;;17.50;62.50;;;;;;4853729;29;20037;-76
2024/03/13 12:30:29;;;;;;;0.10;0.10;;;17.60;62.50;;;;;;4847078;29;20034;-76
2024/03/13 12:32:59;;;;;;;0.10;0.10;;;17.70;62.10;;;;;;4848026;29;20393;-76
2024/03/13 12:35:25;;;;;;;0.10;0.10;;;17.80;61.40;;;;;;4849286;29;20848;-76
2024/03/13 12:37:53;;;;;;;0.10;0.10;;;17.80;61.10;;;;;;4865395;29;20035;-76
2024/03/13 12:40:20;;;;;;;0.10;0.10;;;17.80;61.20;;;;;;4857622;29;20116;-81
2024/03/13 12:42:48;;;;;;;0.10;0.10;;;18.00;61.30;;;;;;4845123;29;20045;-81
2024/03/13 12:45:17;;;;;;;0.10;0.10;;;18.20;60.80;;;;;;4865766;29;20033;-79
2024/03/13 12:47:43;;;;;;;0.10;0.10;;;18.30;60.20;;;;;;4843098;29;20062;-77
2024/03/13 12:50:13;;;;;;;0.10;0.10;;;18.30;60.10;;;;;;4847143;29;20033;-77
2024/03/13 12:52:39;;;;;;;0.10;0.10;;;18.10;59.20;;;;;;4864398;29;20060;-77
2024/03/13 12:55:07;;;;;;;0.10;0.10;;;18.10;59.60;;;;;;4848923;29;20021;-77
2024/03/13 12:57:34;;;;;;;0.10;0.10;;;18.00;59.50;;;;;;4848906;29;20029;-77
2024/03/13 13:00:06;;;;;;;0.10;0.10;;;18.00;60.10;;;;;;4848799;29;20021;-77
2024/03/13 13:02:34;;;;;;;0.10;0.10;;;18.10;60.10;;;;;;4865481;29;20509;-77
2024/03/13 13:05:00;;;;;;;0.10;0.10;;;18.10;60.20;;;;;;4848978;29;20117;-78
2024/03/13 13:07:27;;;;;;;0.10;0.10;;;18.20;61.10;;;;;;4865344;29;20057;-78
2024/03/13 13:09:55;;;;;;;0.10;0.10;;;18.20;60.40;;;;;;4863002;29;20021;-77
2024/03/13 13:12:22;;;;;;;0.08;0.08;;;18.20;59.80;;;;;;4865287;29;20074;-77
2024/03/13 13:14:49;;;;;;;0.10;0.10;;;18.30;60.60;;;;;;4864611;29;20028;-77
2024/03/13 13:17:15;;;;;;;0.10;0.10;;;18.30;60.90;;;;;;4859474;29;20062;-77
2024/03/13 13:19:42;;;;;;;0.10;0.10;;;18.30;60.00;;;;;;4862830;29;20029;-77
2024/03/13 13:22:07;;;;;;;0.10;0.10;;;18.40;60.50;;;;;;4848028;29;20025;-77
2024/03/13 13:24:33;;;;;;;0.10;0.10;;;18.40;60.60;;;;;;4864266;29;20037;-77
2024/03/13 13:26:59;;;;;;;0.10;0.10;;;18.30;60.20;;;;;;4847388;29;20033;-78
2024/03/13 13:29:25;;;;;;;0.10;0.10;;;18.40;61.00;;;;;;4864704;29;20435;-78
2024/03/13 13:31:52;;;;;;;0.10;0.10;;;18.30;59.70;;;;;;4861976;29;20529;-77
2024/03/13 13:34:17;;;;;;;0.10;0.10;;;18.10;59.40;;;;;;4861052;29;20022;-78
2024/03/13 13:36:44;;;;;;;0.10;0.10;;;18.00;58.90;;;;;;4864699;29;20074;-77
2024/03/13 13:39:09;;;;;;;0.10;0.10;;;18.00;58.80;;;;;;4848277;29;20033;-77
2024/03/13 13:41:35;;;;;;;0.10;0.10;;;18.10;59.80;;;;;;4864476;29;20037;-77
2024/03/13 13:44:03;;;;;;;0.10;0.10;;;18.20;59.80;;;;;;4861567;29;20033;-77
2024/03/13 13:46:34;;;;;;;0.10;0.10;;;18.20;59.00;;;;;;4846718;29;20457;-77
2024/03/13 13:49:01;;;;;;;0.10;0.10;;;18.20;59.10;;;;;;4848136;29;20030;-77
2024/03/13 13:51:26;;;;;;;0.10;0.10;;;18.00;58.70;;;;;;4847821;29;20033;-77
2024/03/13 13:53:52;;;;;;;0.10;0.10;;;18.10;60.30;;;;;;4864102;29;20034;-77
2024/03/13 13:56:18;;;;;;;0.10;0.10;;;18.30;60.10;;;;;;4847187;29;20032;-78
2024/03/13 13:58:48;;;;;;;0.10;0.10;;;18.30;59.20;;;;;;4863208;29;20038;-78
2024/03/13 14:01:14;;;;;;;0.10;0.10;;;18.30;58.30;;;;;;4864386;29;20117;-77
2024/03/13 14:03:41;;;;;;;0.10;0.10;;;18.30;58.60;;;;;;4863809;29;20520;-77
2024/03/13 14:06:09;;;;;;;0.10;0.10;;;18.40;59.00;;;;;;4861650;29;20570;-77
2024/03/13 14:08:35;;;;;;;0.10;0.10;;;18.30;57.80;;;;;;4861674;29;20566;-77
2024/03/13 14:11:01;;;;;;;0.00;0.00;;;18.30;58.20;;;;;;4865953;29;20026;-76
2024/03/13 14:13:28;;;;;;;0.10;0.10;;;18.20;58.60;;;;;;4862421;29;20068;-77
2024/03/13 14:15:54;;;;;;;0.10;0.10;;;18.30;59.30;;;;;;4863980;29;20025;-77
2024/03/13 14:18:19;;;;;;;0.10;0.10;;;18.30;59.70;;;;;;4861456;29;20485;-77
2024/03/13 14:20:47;;;;;;;0.10;0.10;;;18.20;59.00;;;;;;4864172;29;20029;-77
2024/03/13 14:23:13;;;;;;;0.10;0.10;;;18.10;59.60;;;;;;4844975;29;20026;-76
2024/03/13 14:25:39;;;;;;;0.10;0.10;;;18.00;59.30;;;;;;4845685;29;20026;-76
2024/03/13 14:28:09;;;;;;;0.10;0.10;;;17.90;60.30;;;;;;4863835;29;20029;-76
2024/03/13 14:30:36;;;;;;;0.10;0.10;;;18.00;60.30;;;;;;4861097;29;20033;-76
2024/03/13 14:33:02;;;;;;;0.10;0.10;;;17.90;60.10;;;;;;4860408;29;20029;-77
2024/03/13 14:35:28;;;;;;;0.10;0.10;;;17.90;60.90;;;;;;4855436;29;20037;-77
2024/03/13 14:37:54;;;;;;;0.03;0.03;;;18.00;61.70;;;;;;4860788;29;20514;-77
2024/03/13 14:40:22;;;;;;;0.10;0.10;;;18.10;61.20;;;;;;4858763;29;20033;-77
2024/03/13 14:42:48;;;;;;;0.10;0.10;;;18.20;60.90;;;;;;4862297;29;20034;-76
2024/03/13 14:45:13;;;;;;;0.10;0.10;;;18.30;60.40;;;;;;4846571;29;20073;-77
2024/03/13 14:47:40;;;;;;;0.10;0.10;;;18.30;60.70;;;;;;4845301;29;20045;-78
2024/03/13 14:50:08;;;;;;;0.10;0.10;;;18.30;60.60;;;;;;4846183;29;20490;-77
2024/03/13 14:52:34;;;;;;;0.00;0.00;;;18.30;60.30;;;;;;4845727;29;20029;-77
2024/03/13 14:55:00;;;;;;;0.10;0.10;;;18.30;59.90;;;;;;4842906;29;20030;-77
2024/03/13 14:57:28;;;;;;;0.10;0.10;;;18.30;60.50;;;;;;4861999;29;20037;-76
2024/03/13 14:59:55;;;;;;;0.10;0.10;;;18.30;60.30;;;;;;4861850;29;20500;-77
2024/03/13 15:02:22;;;;;;;0.00;0.00;;;18.30;59.80;;;;;;4860633;29;20539;-77
2024/03/13 15:04:47;;;;;;;0.10;0.10;;;18.30;60.50;;;;;;4861164;29;20550;-76
2024/03/13 15:07:14;;;;;;;0.10;0.10;;;18.20;59.90;;;;;;4846066;29;20038;-76
2024/03/13 15:09:40;;;;;;;0.00;0.00;;;18.20;60.00;;;;;;4860943;29;20021;-77
2024/03/13 15:12:10;;;;;;;0.10;0.10;;;18.10;60.10;;;;;;4860518;29;20030;-77
2024/03/13 15:14:37;;;;;;;0.10;0.10;;;18.20;60.20;;;;;;4860117;29;20070;-78
2024/03/13 15:17:06;;;;;;;0.10;0.10;;;18.00;60.50;;;;;;4844887;29;20120;-77
2024/03/13 15:19:32;;;;;;;0.10;0.10;;;18.00;61.60;;;;;;4862994;29;20089;-78
2024/03/13 15:21:58;;;;;;;0.10;0.10;;;18.00;61.20;;;;;;4863476;29;20033;-78
2024/03/13 15:24:24;;;;;;;0.10;0.10;;;18.10;61.40;;;;;;4860356;29;20034;-78
2024/03/13 15:26:49;;;;;;;0.00;0.00;;;18.00;60.90;;;;;;4863268;29;20033;-78
2024/03/13 15:29:15;;;;;;;0.00;0.00;;;17.90;60.10;;;;;;4860591;29;20026;-77
2024/03/13 15:31:41;;;;;;;0.10;0.10;;;17.90;60.60;;;;;;4845215;29;20049;-77
2024/03/13 15:34:07;;;;;;;0.05;0.05;;;17.90;60.80;;;;;;4831512;29;20050;-77
2024/03/13 15:36:33;;;;;;;0.05;0.05;;;17.80;61.20;;;;;;4863163;29;20026;-77
2024/03/13 15:38:59;;;;;;;0.10;0.10;;;17.80;61.30;;;;;;4861710;29;20076;-78
2024/03/13 15:41:24;;;;;;;0.05;0.05;;;17.70;61.10;;;;;;4846570;29;20117;-77
2024/03/13 15:43:50;;;;;;;0.00;0.00;;;17.70;61.70;;;;;;4862877;29;20037;-77
2024/03/13 15:46:16;;;;;;;0.00;0.00;;;17.70;61.80;;;;;;4862592;29;20057;-77
2024/03/13 15:48:43;;;;;;;0.00;0.00;;;17.70;61.80;;;;;;4843231;29;20030;-77
2024/03/13 15:51:08;;;;;;;0.10;0.10;;;17.70;61.70;;;;;;4836956;29;20155;-77
2024/03/13 15:53:34;;;;;;;0.10;0.10;;;17.70;61.50;;;;;;4861575;29;20057;-77
2024/03/13 15:56:00;;;;;;;0.00;0.00;;;17.70;61.20;;;;;;4862777;29;20064;-77
2024/03/13 15:58:26;;;;;;;0.00;0.00;;;17.70;61.50;;;;;;4863772;29;20033;-77
2024/03/13 16:00:53;;;;;;;0.03;0.03;;;17.60;61.70;;;;;;4865926;29;20025;-77
2024/03/13 16:03:20;;;;;;;0.08;0.08;;;17.50;61.80;;;;;;4862236;29;20401;-78
2024/03/13 16:05:47;;;;;;;0.00;0.00;;;17.50;61.80;;;;;;4865306;29;20029;-77
2024/03/13 16:08:17;;;;;;;0.00;0.00;;;17.40;62.40;;;;;;4855715;29;20033;-77
2024/03/13 16:10:48;;;;;;;0.10;0.10;;;17.30;62.60;;;;;;4848684;29;20398;-77
2024/03/13 16:13:13;;;;;;;0.10;0.10;;;17.20;62.90;;;;;;4863158;29;20070;-77
2024/03/13 16:15:40;;;;;;;0.03;0.03;;;17.20;63.00;;;;;;4849509;29;20069;-77
2024/03/13 16:18:05;;;;;;;0.10;0.10;;;17.10;63.00;;;;;;4848711;29;20069;-78
2024/03/13 16:20:31;;;;;;;0.00;0.00;;;17.10;63.60;;;;;;4865232;29;20430;-78
2024/03/13 16:22:59;;;;;;;0.00;0.00;;;17.10;63.70;;;;;;4848470;29;20025;-78
2024/03/13 16:25:25;;;;;;;0.03;0.03;;;17.00;63.70;;;;;;4861718;29;20089;-78
2024/03/13 16:27:51;;;;;;;0.10;0.10;;;17.00;64.00;;;;;;4864525;29;20029;-78
2024/03/13 16:30:18;;;;;;;0.10;0.10;;;17.10;64.30;;;;;;4848950;29;20070;-78
2024/03/13 16:32:44;;;;;;;0.10;0.10;;;17.10;63.90;;;;;;4863452;29;20026;-77
2024/03/13 16:35:16;;;;;;;0.00;0.00;;;17.20;64.40;;;;;;4865586;29;20497;-77
2024/03/13 16:37:42;;;;;;;0.10;0.10;;;17.10;63.80;;;;;;4861986;29;20533;-78
2024/03/13 16:40:11;;;;;;;0.00;0.00;;;17.10;64.80;;;;;;4865248;29;20030;-78
2024/03/13 16:42:37;;;;;;;0.00;0.00;;;17.10;64.60;;;;;;4865285;29;20014;-78
2024/03/13 16:45:04;;;;;;;0.10;0.10;;;17.10;64.70;;;;;;4865248;29;20411;-77
2024/03/13 16:47:34;;;;;;;0.10;0.10;;;17.00;65.10;;;;;;4862646;29;20032;-78
2024/03/13 16:50:00;;;;;;;0.10;0.10;;;17.10;65.20;;;;;;4865024;29;20029;-78
2024/03/13 16:52:26;;;;;;;0.00;0.00;;;17.10;65.50;;;;;;4844795;29;20026;-78
2024/03/13 16:54:51;;;;;;;0.10;0.10;;;17.10;65.30;;;;;;4839114;29;20026;-78
2024/03/13 16:57:18;;;;;;;0.00;0.00;;;17.10;65.10;;;;;;4860957;29;20140;-78
2024/03/13 16:59:47;;;;;;;0.10;0.10;;;17.00;65.30;;;;;;4856710;29;20038;-78
2024/03/13 17:02:13;;;;;;;0.00;0.00;;;17.00;65.20;;;;;;4858769;29;20057;-78
2024/03/13 17:04:39;;;;;;;0.10;0.10;;;16.90;65.90;;;;;;4844163;29;20124;-78
2024/03/13 17:07:04;;;;;;;0.08;0.08;;;16.90;66.20;;;;;;4846026;29;20132;-78
2024/03/13 17:09:30;;;;;;;0.00;0.00;;;16.80;66.70;;;;;;4843577;29;20487;-77
2024/03/13 17:11:55;;;;;;;0.10;0.10;;;16.80;66.90;;;;;;4859512;29;20058;-77
2024/03/13 17:14:22;;;;;;;0.00;0.00;;;16.80;67.20;;;;;;4857469;29;20034;-77
2024/03/13 17:16:48;;;;;;;0.05;0.05;;;16.70;67.70;;;;;;4859986;29;20062;-77
2024/03/13 17:19:15;;;;;;;0.00;0.00;;;16.60;67.70;;;;;;4862072;29;20041;-84
2024/03/13 17:21:41;;;;;;;0.00;0.00;;;16.50;67.90;;;;;;4845201;29;20501;-77
2024/03/13 17:24:08;;;;;;;0.00;0.00;;;16.50;67.90;;;;;;4859485;29;20063;-77
2024/03/13 17:26:35;;;;;;;0.10;0.10;;;16.40;68.20;;;;;;4861518;29;20025;-77
2024/03/13 17:29:01;;;;;;;0.00;0.00;;;16.30;68.40;;;;;;4861578;29;20473;-77
2024/03/13 17:31:27;;;;;;;0.00;0.00;;;16.30;68.50;;;;;;4858532;29;20120;-78
2024/03/13 17:33:52;;;;;;;0.00;0.00;;;16.20;69.00;;;;;;4859174;29;20033;-77
2024/03/13 17:36:18;;;;;;;0.00;0.00;;;16.10;69.20;;;;;;4842916;29;20029;-77
2024/03/13 17:38:47;;;;;;;0.03;0.03;;;16.00;69.30;;;;;;4844646;29;20405;-77
2024/03/13 17:41:14;;;;;;;0.00;0.00;;;15.90;69.40;;;;;;4859484;29;20088;-77
2024/03/13 17:43:40;;;;;;;0.00;0.00;;;15.90;69.40;;;;;;4847362;29;20036;-76
2024/03/13 17:46:08;;;;;;;0.03;0.03;;;15.90;69.50;;;;;;4861149;29;20030;-77
2024/03/13 17:48:34;;;;;;;0.00;0.00;;;15.80;69.70;;;;;;4859413;29;20033;-77
2024/03/13 17:51:00;;;;;;;0.08;0.08;;;15.80;69.80;;;;;;4839401;29;20125;-77
2024/03/13 17:53:26;;;;;;;0.00;0.00;;;15.70;69.90;;;;;;4843943;29;20116;-77
2024/03/13 17:55:51;;;;;;;0.10;0.00;;;15.70;69.80;;;;;;4860602;29;20049;-76
2024/03/13 17:58:17;;;;;;;0.00;0.00;;;15.60;69.90;;;;;;4859414;29;20026;-78
2024/03/13 18:00:43;;;;;;;0.00;0.00;;;15.60;69.90;;;;;;4843147;29;20044;-77
2024/03/13 18:03:10;;;;;;;0.00;0.00;;;15.60;70.10;;;;;;4859831;29;20050;-76
2024/03/13 18:05:37;;;;;;;0.00;0.00;;;15.50;70.20;;;;;;4858735;29;20067;-77
2024/03/13 18:08:03;;;;;;;0.00;0.00;;;15.50;70.30;;;;;;4844360;29;20029;-77
2024/03/13 18:10:30;;;;;;;0.00;0.00;;;15.40;70.40;;;;;;4844148;29;20025;-79
2024/03/13 18:12:56;;;;;;;0.10;0.10;;;15.40;70.50;;;;;;4844492;29;20030;-79
2024/03/13 18:15:22;;;;;;;0.10;0.10;;;15.30;70.60;;;;;;4858095;29;20581;-78
2024/03/13 18:17:48;;;;;;;0.00;0.00;;;15.30;70.70;;;;;;4844745;29;20025;-77